Impacts TAF Board
For situational awareness. Not to be used for flight planning purposes.
IDs:

KSRQ - Sarasota-Bradenton I, FL, US

Issued at 2321 UTC 18 Aug 2019
Updated at 0535 UTC 19 Aug 2019
Potential Impact None Slight Moderate High
Time0453Z 19/06Z 19/07Z 19/08Z 19/09Z 19/10Z 19/11Z 19/12Z 19/13Z 19/14Z 19/15Z 19/16Z 19/17Z 19/18Z>>
Type OBS PRVL PRVL PRVL PRVL PRVL PRVL PRVL PRVL PRVL PRVL PRVL PRVL PRVL
VIS 10 >6 >6 >6 >6 >6 >6 >6 >6 >6 >6 >6 >6 >6
CIG -- -- -- -- -- -- -- -- -- -- -- -- -- --
Cover CLR SCT SCT SCT SCT SCT SCT SCT SCT SCT SCT SCT SCT SCT
FltCat VFR VFR VFR VFR VFR VFR VFR VFR VFR VFR VFR VFR VFR VFR
WX -- -- -- -- -- -- -- -- -- -- -- -- -- --
WDir 40 100 100 100 100 100 100 100 100 100 100 100 240 240
WSpd 3 4 4 4 4 4 4 4 4 7 7 7 7 7
WGst -- -- -- -- -- -- -- -- -- -- -- -- -- --
Raw TAF
KSRQ 182321Z 1900/1924 31005KT P6SM FEW030 BKN250
  FM190400 10004KT P6SM SCT250
  FM191400 10007KT P6SM SCT030 SCT250
  FM191700 24007KT P6SM SCT035 SCT250
  FM192000 29009KT P6SM VCTS SCT040CB SCT250


Raw METAR
KSRQ 190453Z AUTO 04003KT 10SM CLR 26/23 A3008 RMK AO2 SLP186 T02560228 403220239
KSRQ 190353Z 11004KT 10SM SCT047 26/23 A3009 RMK AO2 SLP187 T02610228
KSRQ 190253Z 09005KT 10SM CLR 27/25 A3007 RMK AO2 SLP181 T02670250 53007

METAR Board
Radar Display
Forecast Discussion
For situational awareness. Not to be used for flight planning purposes.